Forside
METAR-TAF:

METAR-TAF

Lufthavne :

Linton-on-Ouse, England

Breddekreds: 54-03N, længdekreds: 001-15W, højde: 16 m

Aktuelle vejr

Denne rapport blev lavet for 1 time og 6 minutter siden, kl. 16:50 UTC
Vind 16 kt fra vest
Temperatur 6°C
Fugtighed 65%
Tryk 1016 hPa
Sigt 10 km eller mere

METAR: EGXU 231650Z AUTO 28016KT 9999 NCD 06/00 Q1016

Tid: 17:56 (17:56 UTC)


TAF: fraværende

Vejrobservationer og prognoser fra mere end 4000 lufthavne (METAR og TAF).

De gule og røde prikker repræsenterer de meteorologiske stationer.

Flyt musen over at se navnet på stationen.

Så klik over at se vejr observationer og prognoser.

At skifte det kort: Klik på de grønne knapper med et sort kors for at zoome ind; på den grønne knap med en bindestreg for at zoome ud; eller på de grønne pile for tilstødende kort.


METAR-TAF: